Time;durP1;ratioP1;P1;durP2;ratioP2;P2;SDS_P1;SDS_P2;PMS_P1;PMS_P2;Temp;Humidity;BMP_temperature;BMP_pressure;BME280_temperature;BME280_humidity;BME280_pressure;Samples;Min_cycle;Max_cycle;Signal;HPM_P1;HPM_P2
2023/04/13 00:00:38;;;;;;;;;1.00;1.00;;;;;10.14;74.25;98619.09;5063878;28;45421;-77
2023/04/13 00:03:03;;;;;;;;;1.00;1.00;;;;;10.13;76.10;98616.53;5056122;28;45453;-77
2023/04/13 00:05:29;;;;;;;;;0.00;0.00;;;;;10.15;74.15;98627.84;5050464;28;45565;-77
2023/04/13 00:07:55;;;;;;;;;1.00;1.00;;;;;10.09;76.55;98622.84;5055508;28;46083;-78
2023/04/13 00:10:22;;;;;;;;;0.00;0.00;;;;;9.96;71.49;98629.59;5055748;28;45416;-78
2023/04/13 00:12:49;;;;;;;;;0.00;0.00;;;;;9.87;76.04;98623.00;5052660;28;45560;-78
2023/04/13 00:15:18;;;;;;;;;1.00;1.00;;;;;9.80;76.79;98618.91;5054876;28;45579;-78
2023/04/13 00:17:46;;;;;;;;;1.75;1.75;;;;;9.71;73.70;98625.47;5055050;28;46148;-78
2023/04/13 00:20:12;;;;;;;;;1.50;1.00;;;;;9.66;76.89;98619.53;5049734;28;45417;-78
2023/04/13 00:22:39;;;;;;;;;0.25;0.25;;;;;9.58;78.10;98618.16;5057634;28;45353;-77
2023/04/13 00:25:05;;;;;;;;;1.50;1.50;;;;;9.49;75.08;98619.41;5055705;28;45522;-78
2023/04/13 00:27:31;;;;;;;;;2.25;1.00;;;;;9.41;77.62;98613.63;5046366;28;45345;-78
2023/04/13 00:29:56;;;;;;;;;2.00;1.00;;;;;9.41;79.88;98608.38;5045178;28;45455;-78
2023/04/13 00:32:22;;;;;;;;;1.00;1.00;;;;;9.43;77.35;98615.28;5041573;28;45483;-78
2023/04/13 00:34:48;;;;;;;;;0.00;0.00;;;;;9.44;76.37;98613.50;5052636;28;45451;-77
2023/04/13 00:37:13;;;;;;;;;1.00;1.00;;;;;9.47;78.16;98623.91;5042472;28;46557;-77
2023/04/13 00:39:42;;;;;;;;;0.25;0.25;;;;;9.47;78.31;98616.00;5055894;28;45431;-77
2023/04/13 00:42:08;;;;;;;;;1.50;1.00;;;;;9.47;76.92;98615.16;5053887;28;45561;-78
2023/04/13 00:44:34;;;;;;;;;1.00;1.00;;;;;9.42;74.14;98612.72;5054553;28;45412;-78
2023/04/13 00:47:02;;;;;;;;;0.00;0.00;;;;;9.38;73.32;98603.25;5070534;28;48242;-77
2023/04/13 00:49:29;;;;;;;;;0.00;0.00;;;;;9.36;72.01;98613.00;5049854;28;45453;-78
2023/04/13 00:51:54;;;;;;;;;0.00;0.00;;;;;9.38;73.90;98608.53;5054644;28;45489;-77
2023/04/13 00:54:21;;;;;;;;;0.00;0.00;;;;;9.37;71.52;98597.16;5049035;28;45467;-78
2023/04/13 00:56:47;;;;;;;;;0.00;0.00;;;;;9.39;71.70;98600.53;5054705;28;45544;-78
2023/04/13 00:59:13;;;;;;;;;0.00;0.00;;;;;9.37;71.06;98591.88;5054914;28;45514;-78
2023/04/13 01:01:45;;;;;;;;;0.50;0.50;;;;;9.39;70.63;98591.78;5054645;28;45498;-78
2023/04/13 01:04:17;;;;;;;;;0.00;0.00;;;;;9.39;71.25;98590.00;5054103;28;45424;-77
2023/04/13 01:06:51;;;;;;;;;0.00;0.00;;;;;9.39;68.82;98590.00;5054085;28;46332;-77
2023/04/13 01:09:29;;;;;;;;;1.00;0.00;;;;;9.36;70.02;98586.69;5052516;28;45389;-77
2023/04/13 01:12:04;;;;;;;;;0.00;0.00;;;;;9.37;68.03;98589.25;5052804;28;45508;-78
2023/04/13 01:14:43;;;;;;;;;0.75;0.00;;;;;9.36;69.56;98582.28;5055154;28;45483;-77
2023/04/13 01:17:20;;;;;;;;;0.00;0.00;;;;;9.39;70.40;98589.16;5069186;28;46503;-77
2023/04/13 01:20:00;;;;;;;;;0.25;0.00;;;;;9.40;64.40;98598.75;5053349;28;45464;-77
2023/04/13 01:22:31;;;;;;;;;0.00;0.00;;;;;9.38;63.06;98593.56;5053836;28;45415;-78
2023/04/13 01:25:29;;;;;;;;;0.00;0.00;;;;;9.40;68.15;98604.03;5054791;28;45511;-77
2023/04/13 01:28:00;;;;;;;;;0.00;0.00;;;;;9.29;69.58;98616.78;5050958;28;45734;-77
2023/04/13 01:30:27;;;;;;;;;1.00;0.00;;;;;9.08;71.31;98613.28;5054323;28;45487;-77
2023/04/13 01:32:54;;;;;;;;;0.00;0.00;;;;;8.91;71.27;98624.50;5051322;28;45532;-77
2023/04/13 01:35:21;;;;;;;;;0.00;0.00;;;;;8.78;72.27;98620.69;5053981;28;45480;-77
2023/04/13 01:37:49;;;;;;;;;0.00;0.00;;;;;8.65;70.75;98635.25;5044529;28;46452;-77
2023/04/13 01:40:14;;;;;;;;;0.00;0.00;;;;;8.53;72.56;98630.50;5069811;28;45611;-77
2023/04/13 01:42:41;;;;;;;;;0.00;0.00;;;;;8.49;73.21;98627.13;5053058;28;45398;-78
2023/04/13 01:45:13;;;;;;;;;0.00;0.00;;;;;8.48;73.04;98633.28;5054460;28;45639;-77
2023/04/13 01:47:46;;;;;;;;;0.00;0.00;;;;;8.44;71.26;98634.31;5053185;28;46535;-77
2023/04/13 01:50:42;;;;;;;;;0.00;0.00;;;;;8.41;72.68;98623.94;5053683;28;45484;-77
2023/04/13 01:53:14;;;;;;;;;0.00;0.00;;;;;8.43;72.77;98621.25;5067752;27;45427;-77
2023/04/13 01:55:41;;;;;;;;;0.00;0.00;;;;;8.46;73.38;98619.34;5047147;28;45516;-77
2023/04/13 01:58:09;;;;;;;;;0.00;0.00;;;;;8.51;74.02;98619.19;5054080;28;46263;-77
2023/04/13 02:00:35;;;;;;;;;0.00;0.00;;;;;8.54;73.92;98611.19;5050135;28;45515;-77
2023/04/13 02:03:06;;;;;;;;;0.00;0.00;;;;;8.57;73.37;98616.28;5055695;28;45388;-77
2023/04/13 02:05:33;;;;;;;;;0.00;0.00;;;;;8.59;73.27;98610.06;5072789;27;45433;-77
2023/04/13 02:07:59;;;;;;;;;0.00;0.00;;;;;8.60;72.87;98608.28;5047186;28;47613;-77
2023/04/13 02:10:25;;;;;;;;;0.00;0.00;;;;;8.63;72.84;98616.06;5068119;28;45318;-78
2023/04/13 02:12:53;;;;;;;;;0.00;0.00;;;;;8.64;73.56;98608.13;5054498;27;45396;-77
2023/04/13 02:15:19;;;;;;;;;0.00;0.00;;;;;8.67;73.54;98596.63;5052512;28;45529;-77
2023/04/13 02:17:44;;;;;;;;;0.75;0.00;;;;;8.69;73.61;98600.06;5052303;28;46897;-77
2023/04/13 02:20:11;;;;;;;;;0.00;0.00;;;;;8.72;73.26;98599.91;5067062;28;45349;-77
2023/04/13 02:22:38;;;;;;;;;0.00;0.00;;;;;8.75;73.32;98597.16;5048682;28;45413;-77
2023/04/13 02:25:05;;;;;;;;;0.00;0.00;;;;;8.78;73.45;98590.91;5049381;28;45391;-77
2023/04/13 02:27:31;;;;;;;;;0.00;0.00;;;;;8.81;74.21;98596.06;5067679;28;47664;-78
2023/04/13 02:29:57;;;;;;;;;0.00;0.00;;;;;8.82;74.15;98598.63;5049378;28;45445;-77
2023/04/13 02:32:23;;;;;;;;;0.00;0.00;;;;;8.80;73.69;98600.47;5053312;28;45440;-77
2023/04/13 02:34:49;;;;;;;;;0.00;0.00;;;;;8.82;73.68;98610.91;5047700;28;45471;-77
2023/04/13 02:37:14;;;;;;;;;0.00;0.00;;;;;8.82;74.16;98603.88;5052043;28;47248;-78
2023/04/13 02:39:40;;;;;;;;;0.00;0.00;;;;;8.82;75.00;98606.50;5050915;28;45400;-77
2023/04/13 02:42:06;;;;;;;;;0.00;0.00;;;;;8.83;74.96;98602.97;5052648;28;45549;-77
2023/04/13 02:44:32;;;;;;;;;0.00;0.00;;;;;8.85;75.48;98609.00;5053508;28;45538;-77
2023/04/13 02:46:58;;;;;;;;;0.00;0.00;;;;;8.86;75.82;98612.50;5052321;28;45495;-77
2023/04/13 02:49:24;;;;;;;;;0.00;0.00;;;;;8.83;76.32;98615.25;5050860;28;45369;-78
2023/04/13 02:51:49;;;;;;;;;0.00;0.00;;;;;8.81;75.71;98610.06;5052007;28;45465;-78
2023/04/13 02:54:15;;;;;;;;;0.00;0.00;;;;;8.80;76.35;98610.97;5053342;28;45579;-77
2023/04/13 02:56:42;;;;;;;;;0.00;0.00;;;;;8.81;76.40;98607.44;5051608;28;47224;-77
2023/04/13 02:59:07;;;;;;;;;0.00;0.00;;;;;8.81;76.13;98609.19;5053853;28;45440;-77
2023/04/13 03:01:33;;;;;;;;;0.00;0.00;;;;;8.82;76.90;98605.66;5053106;28;45517;-77
2023/04/13 03:03:58;;;;;;;;;0.00;0.00;;;;;8.81;77.34;98611.81;5055432;28;45553;-77
2023/04/13 03:06:24;;;;;;;;;0.00;0.00;;;;;8.80;76.65;98610.97;5050734;28;45399;-77
2023/04/13 03:08:50;;;;;;;;;0.00;0.00;;;;;8.78;75.60;98611.94;5050094;28;45446;-77
2023/04/13 03:11:16;;;;;;;;;0.00;0.00;;;;;8.73;75.44;98623.50;5066360;28;45477;-77
2023/04/13 03:13:42;;;;;;;;;1.75;0.00;;;;;8.69;75.27;98621.06;5056429;28;45364;-77
2023/04/13 03:16:10;;;;;;;;;0.00;0.00;;;;;8.63;75.58;98622.16;5064072;28;47172;-77
2023/04/13 03:18:37;;;;;;;;;0.00;0.00;;;;;8.60;76.34;98621.44;5053318;28;45335;-77
2023/04/13 03:21:04;;;;;;;;;0.00;0.00;;;;;8.58;75.87;98624.13;5049036;28;45509;-77
2023/04/13 03:23:30;;;;;;;;;0.00;0.00;;;;;8.58;76.25;98628.50;5059917;28;45494;-77
2023/04/13 03:25:55;;;;;;;;;0.00;0.00;;;;;8.54;75.97;98625.19;5052503;28;45413;-77
2023/04/13 03:28:21;;;;;;;;;0.00;0.00;;;;;8.54;76.19;98619.06;5052928;28;45413;-77
2023/04/13 03:30:46;;;;;;;;;0.00;0.00;;;;;8.55;76.58;98621.59;5053088;28;45396;-77
2023/04/13 03:33:11;;;;;;;;;0.00;0.00;;;;;8.57;76.94;98616.28;5050614;28;45477;-77
2023/04/13 03:35:37;;;;;;;;;0.00;0.00;;;;;8.57;76.65;98625.03;5063092;28;47846;-77
2023/04/13 03:38:02;;;;;;;;;0.00;0.00;;;;;8.58;77.08;98625.88;5051725;28;45391;-77
2023/04/13 03:40:28;;;;;;;;;0.00;0.00;;;;;8.59;77.37;98638.09;5068556;28;45422;-77
2023/04/13 03:42:53;;;;;;;;;0.00;0.00;;;;;8.57;78.00;98632.06;5036293;28;45431;-76
2023/04/13 03:45:18;;;;;;;;;0.00;0.00;;;;;8.56;78.00;98636.44;5044970;28;45384;-77
2023/04/13 03:47:44;;;;;;;;;0.00;0.00;;;;;8.52;78.17;98618.28;5050268;28;45436;-77
2023/04/13 03:50:10;;;;;;;;;1.75;0.00;;;;;8.53;77.99;98620.84;5053049;28;45398;-76
2023/04/13 03:52:35;;;;;;;;;0.00;0.00;;;;;8.52;78.00;98619.13;5054825;28;45383;-77
2023/04/13 03:55:02;;;;;;;;;0.00;0.00;;;;;8.53;77.87;98626.09;5071706;28;45933;-77
2023/04/13 03:57:28;;;;;;;;;0.00;0.00;;;;;8.53;78.06;98619.97;5071118;28;45546;-77
2023/04/13 03:59:53;;;;;;;;;0.00;0.00;;;;;8.54;77.12;98619.91;5069007;28;45662;-77
2023/04/13 04:02:19;;;;;;;;;0.00;0.00;;;;;8.54;77.25;98619.06;5048415;28;45521;-77
2023/04/13 04:04:45;;;;;;;;;1.00;0.00;;;;;8.53;77.23;98626.09;5056159;28;45816;-77
2023/04/13 04:07:10;;;;;;;;;0.00;0.00;;;;;8.46;76.97;98631.63;5051332;28;45420;-77
2023/04/13 04:09:36;;;;;;;;;0.00;0.00;;;;;8.35;77.17;98630.28;5071790;28;45467;-77
2023/04/13 04:12:02;;;;;;;;;0.00;0.00;;;;;8.31;77.25;98626.03;5047574;28;45406;-77
2023/04/13 04:14:27;;;;;;;;;2.00;0.25;;;;;8.32;77.74;98624.31;5055723;28;45377;-77
2023/04/13 04:16:53;;;;;;;;;0.00;0.00;;;;;8.31;77.63;98631.28;5055252;28;45427;-77
2023/04/13 04:19:18;;;;;;;;;0.00;0.00;;;;;8.32;76.89;98622.53;5055483;28;46080;-77
2023/04/13 04:21:45;;;;;;;;;0.00;0.00;;;;;8.30;76.81;98624.31;5069867;28;45575;-76
2023/04/13 04:24:19;;;;;;;;;1.00;1.00;;;;;8.31;76.79;98631.28;5063326;28;46398;-77
2023/04/13 04:26:48;;;;;;;;;0.00;0.00;;;;;8.32;77.40;98630.41;5055182;28;45551;-77
2023/04/13 04:29:14;;;;;;;;;0.00;0.00;;;;;8.34;77.71;98631.22;5055225;28;45400;-77
2023/04/13 04:31:42;;;;;;;;;0.75;0.00;;;;;8.38;77.99;98618.78;5054906;28;45563;-77
2023/04/13 04:34:09;;;;;;;;;0.00;0.00;;;;;8.40;77.91;98616.97;5055063;28;46548;-76
2023/04/13 04:36:35;;;;;;;;;0.00;0.00;;;;;8.45;77.01;98619.41;5052031;28;45447;-77
2023/04/13 04:39:01;;;;;;;;;2.00;0.50;;;;;8.48;77.32;98611.41;5052440;28;45468;-76
2023/04/13 04:41:26;;;;;;;;;0.75;0.75;;;;;8.51;75.70;98620.03;5049460;28;45453;-77
2023/04/13 04:43:55;;;;;;;;;1.75;1.75;;;;;8.50;74.87;98610.44;5055224;28;46346;-76
2023/04/13 04:46:24;;;;;;;;;0.50;0.50;;;;;8.46;75.37;98616.72;5053900;28;45439;-77
2023/04/13 04:48:50;;;;;;;;;2.50;1.25;;;;;8.42;76.08;98627.41;5055103;28;45388;-77
2023/04/13 04:51:16;;;;;;;;;1.00;0.00;;;;;8.39;76.14;98625.75;5053728;28;45562;-77
2023/04/13 04:53:41;;;;;;;;;0.00;0.00;;;;;8.37;74.95;98638.13;5054666;28;46421;-77
2023/04/13 04:56:07;;;;;;;;;0.75;0.75;;;;;8.36;74.16;98652.16;5052734;28;45425;-77
2023/04/13 04:58:32;;;;;;;;;0.00;0.00;;;;;8.34;69.01;98661.88;5054308;28;45447;-77
2023/04/13 05:00:58;;;;;;;;;0.25;0.25;;;;;8.28;68.57;98681.28;5051985;28;45643;-77
2023/04/13 05:03:23;;;;;;;;;0.00;0.00;;;;;8.16;69.88;98673.03;5054075;28;45589;-77
2023/04/13 05:05:49;;;;;;;;;0.00;0.00;;;;;8.04;70.94;98663.84;5053225;28;45531;-77
2023/04/13 05:08:14;;;;;;;;;0.00;0.00;;;;;7.96;68.80;98664.13;5053981;28;45380;-77
2023/04/13 05:10:45;;;;;;;;;0.00;0.00;;;;;7.93;71.20;98656.34;5052295;28;45529;-77
2023/04/13 05:13:11;;;;;;;;;0.00;0.00;;;;;7.92;71.75;98653.78;5049765;28;46245;-77
2023/04/13 05:15:37;;;;;;;;;0.75;0.75;;;;;7.93;70.20;98658.13;5049800;28;45542;-77
2023/04/13 05:18:05;;;;;;;;;1.00;0.00;;;;;7.87;70.12;98667.09;5055084;28;45467;-59
2023/04/13 05:20:33;;;;;;;;;0.00;0.00;;;;;7.82;67.69;98663.78;5054351;28;45542;-59
2023/04/13 05:22:59;;;;;;;;;0.00;0.00;;;;;7.79;69.70;98655.16;5056363;28;46263;-59
2023/04/13 05:25:24;;;;;;;;;0.00;0.00;;;;;7.77;70.25;98651.72;5053791;28;45367;-59
2023/04/13 05:27:50;;;;;;;;;0.00;0.00;;;;;7.76;70.25;98657.88;5054626;28;45354;-59
2023/04/13 05:30:16;;;;;;;;;0.00;0.00;;;;;7.76;70.04;98656.13;5054417;28;45540;-59
2023/04/13 05:32:42;;;;;;;;;0.00;0.00;;;;;7.76;69.77;98656.13;5043147;28;47334;-59
2023/04/13 05:35:09;;;;;;;;;1.00;1.00;;;;;7.76;70.15;98658.75;5052663;28;45500;-59
2023/04/13 05:37:34;;;;;;;;;0.00;0.00;;;;;7.77;70.49;98663.09;5049059;28;45422;-59
2023/04/13 05:39:59;;;;;;;;;1.00;0.00;;;;;7.74;70.53;98667.56;5052898;28;45417;-59
2023/04/13 05:42:25;;;;;;;;;6.25;2.00;;;;;7.71;70.20;98672.00;5049805;28;45566;-66
2023/04/13 05:44:51;;;;;;;;;0.50;0.00;;;;;7.73;69.86;98674.59;5052598;28;45455;-67
2023/04/13 05:47:20;;;;;;;;;0.00;0.00;;;;;7.73;68.35;98677.22;5050777;28;45460;-67
2023/04/13 05:49:45;;;;;;;;;1.50;0.75;;;;;7.73;67.95;98679.84;5053632;28;45351;-67
2023/04/13 05:52:11;;;;;;;;;0.00;0.00;;;;;7.74;68.69;98684.19;5051854;28;46129;-67
2023/04/13 05:54:37;;;;;;;;;0.00;0.00;;;;;7.75;68.95;98683.25;5053555;28;45307;-67
2023/04/13 05:57:02;;;;;;;;;1.50;1.00;;;;;7.76;69.09;98681.50;5052952;28;45621;-68
2023/04/13 05:59:27;;;;;;;;;0.00;0.00;;;;;7.78;68.00;98685.78;5053922;28;45389;-67
2023/04/13 06:01:54;;;;;;;;;1.25;0.75;;;;;7.82;69.29;98682.16;5049964;28;46269;-67
2023/04/13 06:04:21;;;;;;;;;0.00;0.00;;;;;7.86;70.03;98686.38;5052081;28;45487;-68
2023/04/13 06:06:46;;;;;;;;;0.00;0.00;;;;;7.92;70.80;98686.13;5053225;28;45499;-67
2023/04/13 06:09:13;;;;;;;;;1.00;1.00;;;;;7.95;71.44;98696.53;5052296;28;45451;-67
2023/04/13 06:11:39;;;;;;;;;3.00;1.50;;;;;7.98;72.43;98696.44;5052112;28;45413;-67
2023/04/13 06:14:05;;;;;;;;;1.00;1.00;;;;;8.01;72.35;98691.06;5050720;28;45437;-67
2023/04/13 06:16:30;;;;;;;;;2.25;2.00;;;;;8.05;73.11;98699.66;5048853;28;45305;-67
2023/04/13 06:18:56;;;;;;;;;0.25;0.25;;;;;8.06;72.77;98697.00;5053404;28;45593;-67
2023/04/13 06:21:21;;;;;;;;;0.00;0.00;;;;;8.04;72.82;98697.97;5051471;28;45405;-67
2023/04/13 06:23:49;;;;;;;;;0.75;0.75;;;;;8.04;72.37;98697.97;5060403;28;45423;-67
2023/04/13 06:26:15;;;;;;;;;0.75;0.00;;;;;8.05;72.26;98695.28;5052894;28;45406;-67
2023/04/13 06:28:41;;;;;;;;;0.00;0.00;;;;;8.04;72.21;98697.97;5052799;28;45555;-67
2023/04/13 06:31:07;;;;;;;;;0.00;0.00;;;;;8.05;72.15;98697.91;5052448;28;45504;-67
2023/04/13 06:33:32;;;;;;;;;0.25;0.25;;;;;8.08;72.13;98691.69;5053188;28;45353;-67
2023/04/13 06:35:58;;;;;;;;;0.00;0.00;;;;;8.11;72.57;98691.56;5050758;28;45475;-67
2023/04/13 06:38:24;;;;;;;;;1.00;0.25;;;;;8.15;71.98;98682.69;5049375;28;45476;-67
2023/04/13 06:40:49;;;;;;;;;1.75;1.00;;;;;8.18;72.09;98686.97;5049685;28;46111;-67
2023/04/13 06:43:15;;;;;;;;;0.00;0.00;;;;;8.24;72.13;98677.06;5049863;28;45386;-67
2023/04/13 06:45:41;;;;;;;;;1.00;1.00;;;;;8.32;72.25;98677.69;5053057;28;45342;-67
2023/04/13 06:48:06;;;;;;;;;0.00;0.00;;;;;8.39;71.76;98675.66;5047828;28;45372;-67
2023/04/13 06:50:32;;;;;;;;;1.00;1.00;;;;;8.54;71.32;98671.59;5052162;28;45590;-67
2023/04/13 06:52:57;;;;;;;;;1.00;1.00;;;;;8.68;71.04;98664.03;5052533;28;45539;-67
2023/04/13 06:55:23;;;;;;;;;0.00;0.00;;;;;8.82;70.12;98664.34;5053469;28;45474;-67
2023/04/13 06:57:48;;;;;;;;;0.00;0.00;;;;;8.99;69.73;98661.88;5052506;28;45594;-67
2023/04/13 07:00:14;;;;;;;;;1.00;0.00;;;;;9.16;69.67;98660.31;5053408;28;46548;-67
2023/04/13 07:02:43;;;;;;;;;0.75;0.00;;;;;9.30;69.41;98653.56;5045166;28;46010;-68
2023/04/13 07:05:10;;;;;;;;;1.00;0.50;;;;;9.41;67.70;98655.72;5052639;28;45318;-67
2023/04/13 07:07:36;;;;;;;;;0.00;0.00;;;;;9.51;67.49;98651.78;5041908;28;45566;-67
2023/04/13 07:10:01;;;;;;;;;0.00;0.00;;;;;9.58;66.85;98647.94;5059564;28;46352;-67
2023/04/13 07:12:27;;;;;;;;;0.75;0.75;;;;;9.63;66.84;98643.34;5048329;28;45392;-67
2023/04/13 07:14:52;;;;;;;;;1.00;1.00;;;;;9.66;65.49;98643.22;5053120;28;45378;-68
2023/04/13 07:17:18;;;;;;;;;0.00;0.00;;;;;9.68;65.74;98640.53;5052405;28;45517;-68
2023/04/13 07:19:48;;;;;;;;;0.00;0.00;;;;;9.75;65.74;98636.69;5052733;28;45372;-68
2023/04/13 07:22:15;;;;;;;;;0.00;0.00;;;;;9.80;65.84;98632.06;5053746;28;45561;-68
2023/04/13 07:24:41;;;;;;;;;0.00;0.00;;;;;9.76;64.22;98630.50;5073162;27;45458;-69
2023/04/13 07:27:06;;;;;;;;;2.00;1.00;;;;;9.65;63.15;98635.38;5055454;28;45408;-69
2023/04/13 07:29:32;;;;;;;;;3.00;1.00;;;;;9.55;63.65;98642.81;5056502;28;45432;-69
2023/04/13 07:32:02;;;;;;;;;0.00;0.00;;;;;9.48;63.18;98638.75;5056107;28;45347;-69
2023/04/13 07:34:28;;;;;;;;;2.00;1.00;;;;;9.38;64.76;98640.91;5056350;27;45466;-69
2023/04/13 07:36:54;;;;;;;;;0.75;0.75;;;;;9.38;64.10;98635.66;5048343;28;45324;-69
2023/04/13 07:39:19;;;;;;;;;1.25;1.25;;;;;9.35;64.49;98633.19;5054245;28;45377;-69
2023/04/13 07:41:45;;;;;;;;;2.00;1.00;;;;;9.35;64.50;98629.69;5055124;28;45440;-69
2023/04/13 07:44:11;;;;;;;;;4.00;1.00;;;;;9.37;66.14;98627.84;5054851;28;45394;-69
2023/04/13 07:46:37;;;;;;;;;1.00;1.00;;;;;9.47;65.26;98626.53;5055759;28;45377;-69
2023/04/13 07:49:02;;;;;;;;;1.00;1.00;;;;;9.55;64.71;98631.47;5055741;28;46511;-70
2023/04/13 07:51:28;;;;;;;;;0.25;0.00;;;;;9.59;63.19;98625.97;5053759;28;45599;-69
2023/04/13 07:53:54;;;;;;;;;2.00;1.00;;;;;9.58;63.22;98623.41;5054897;28;45491;-69
2023/04/13 07:56:20;;;;;;;;;2.00;0.00;;;;;9.59;62.06;98627.75;5054611;28;45483;-68
2023/04/13 07:58:46;;;;;;;;;1.50;1.00;;;;;9.59;62.41;98630.38;5038197;28;45853;-69
2023/04/13 08:01:11;;;;;;;;;1.25;0.00;;;;;9.62;63.64;98625.00;5052470;28;45579;-69
2023/04/13 08:03:37;;;;;;;;;1.25;0.00;;;;;9.72;61.75;98626.28;5045969;28;45437;-68
2023/04/13 08:06:06;;;;;;;;;2.00;0.00;;;;;9.82;62.73;98624.97;5047918;28;45422;-69
2023/04/13 08:08:32;;;;;;;;;0.00;0.00;;;;;9.92;60.78;98618.34;5050561;28;45692;-68
2023/04/13 08:10:58;;;;;;;;;1.00;1.00;;;;;10.01;61.54;98623.22;5055147;28;45519;-69
2023/04/13 08:13:23;;;;;;;;;1.00;1.00;;;;;10.10;60.03;98620.16;5052596;28;45586;-69
2023/04/13 08:15:49;;;;;;;;;1.00;0.00;;;;;10.18;58.90;98617.16;5053218;28;45460;-69
2023/04/13 08:18:14;;;;;;;;;0.75;0.00;;;;;10.32;60.02;98621.81;5048441;28;46289;-69
2023/04/13 08:20:39;;;;;;;;;0.00;0.00;;;;;10.42;59.35;98620.44;5051713;28;45503;-69
2023/04/13 08:23:05;;;;;;;;;1.00;0.00;;;;;10.46;57.05;98622.88;5057042;28;45460;-69
2023/04/13 08:25:37;;;;;;;;;1.00;1.00;;;;;10.45;53.31;98621.16;5054748;28;45480;-69
2023/04/13 08:28:02;;;;;;;;;0.25;0.00;;;;;10.39;55.50;98613.53;5049916;28;46433;-69
2023/04/13 08:30:31;;;;;;;;;1.00;1.00;;;;;10.39;55.94;98605.63;5054129;28;45630;-68
2023/04/13 08:32:57;;;;;;;;;0.00;0.00;;;;;10.45;56.90;98605.34;5052274;28;45555;-69
2023/04/13 08:35:22;;;;;;;;;2.00;0.00;;;;;10.62;58.80;98598.41;5070109;28;45507;-69
2023/04/13 08:37:48;;;;;;;;;9.25;9.25;;;;;10.88;59.52;98612.97;5051808;28;45329;-69
2023/04/13 08:40:13;;;;;;;;;0.00;0.00;;;;;10.98;57.33;98601.03;5062923;28;45507;-69
2023/04/13 08:42:40;;;;;;;;;0.00;0.00;;;;;10.92;55.98;98604.81;5055130;27;45361;-70
2023/04/13 08:45:07;;;;;;;;;2.00;0.50;;;;;10.91;57.53;98612.78;5055065;28;45396;-70
2023/04/13 08:47:32;;;;;;;;;1.75;1.00;;;;;10.82;57.10;98599.16;5039046;28;46599;-70
2023/04/13 08:49:59;;;;;;;;;1.75;0.25;;;;;10.75;53.73;98610.91;5035222;28;45465;-69
2023/04/13 08:52:27;;;;;;;;;1.25;1.25;;;;;10.64;56.88;98607.09;5034773;28;45412;-70
2023/04/13 08:54:55;;;;;;;;;1.00;1.00;;;;;10.62;55.34;98611.59;5034788;28;45365;-69
2023/04/13 08:57:21;;;;;;;;;3.25;0.00;;;;;10.63;55.80;98621.22;5035353;28;46514;-70
2023/04/13 08:59:51;;;;;;;;;0.80;0.00;;;;;10.65;58.50;98603.53;5034953;28;45248;-69
2023/04/13 09:02:25;;;;;;;;;1.00;1.00;;;;;10.72;56.75;98602.31;5050972;28;45451;-69
2023/04/13 09:04:59;;;;;;;;;0.75;0.00;;;;;10.77;54.03;98606.41;5070392;28;45386;-69
2023/04/13 09:07:31;;;;;;;;;1.00;1.00;;;;;10.83;52.88;98611.41;5069185;28;45519;-69
2023/04/13 09:09:58;;;;;;;;;1.00;0.20;;;;;10.89;55.74;98598.84;5054754;28;45462;-69
2023/04/13 09:12:27;;;;;;;;;3.00;2.00;;;;;10.90;53.00;98609.31;5054634;28;45401;-70
2023/04/13 09:14:53;;;;;;;;;1.25;1.25;;;;;10.86;54.24;98601.63;5054692;28;45542;-69
2023/04/13 09:17:31;;;;;;;;;1.25;1.00;;;;;10.80;52.34;98594.88;5070170;28;46452;-69
2023/04/13 09:20:12;;;;;;;;;0.00;0.00;;;;;10.76;55.28;98595.94;5053327;28;45413;-70
2023/04/13 09:22:38;;;;;;;;;1.25;1.00;;;;;10.74;54.45;98605.72;5076722;27;45435;-69
2023/04/13 09:25:04;;;;;;;;;3.00;2.00;;;;;10.66;55.90;98603.47;5071741;27;45423;-70
2023/04/13 09:27:30;;;;;;;;;0.75;0.00;;;;;10.54;55.49;98601.44;5054324;28;47093;-69
2023/04/13 09:29:56;;;;;;;;;0.25;0.25;;;;;10.46;55.24;98603.56;5054644;28;45393;-69
2023/04/13 09:32:26;;;;;;;;;2.50;2.00;;;;;10.45;55.81;98607.97;5054841;28;45463;-69
2023/04/13 09:35:07;;;;;;;;;0.75;0.75;;;;;10.39;54.31;98615.34;5069935;28;45539;-70
2023/04/13 09:37:34;;;;;;;;;2.00;1.00;;;;;10.34;54.58;98607.66;5054139;28;45518;-68
2023/04/13 09:40:13;;;;;;;;;3.00;1.00;;;;;10.34;56.04;98601.53;5069481;28;45400;-70
2023/04/13 09:42:40;;;;;;;;;0.00;0.00;;;;;10.34;55.87;98599.75;5054281;28;45395;-70
2023/04/13 09:45:07;;;;;;;;;1.00;1.00;;;;;10.40;55.47;98588.91;5054369;28;45294;-70
2023/04/13 09:47:37;;;;;;;;;2.00;1.00;;;;;10.45;53.62;98586.91;5053788;28;46295;-70
2023/04/13 09:50:04;;;;;;;;;2.00;1.00;;;;;10.43;55.37;98596.66;5054191;28;45443;-71
2023/04/13 09:52:29;;;;;;;;;3.00;1.00;;;;;10.25;56.86;98615.97;5069713;28;45378;-70
2023/04/13 09:54:57;;;;;;;;;1.00;1.00;;;;;10.03;57.81;98615.25;5053862;28;45524;-68
2023/04/13 09:57:27;;;;;;;;;0.25;0.25;;;;;9.74;57.95;98619.19;5053868;28;46442;-69
2023/04/13 09:59:54;;;;;;;;;1.00;1.00;;;;;9.43;60.74;98633.69;5054045;28;45458;-72
2023/04/13 10:02:20;;;;;;;;;3.00;2.00;;;;;9.04;61.36;98652.03;5054089;28;45471;-70
2023/04/13 10:04:45;;;;;;;;;0.00;0.00;;;;;8.69;62.53;98634.22;5053868;28;45534;-69
2023/04/13 10:07:12;;;;;;;;;2.50;0.00;;;;;8.38;64.28;98645.91;5053315;28;46613;-67
2023/04/13 10:09:38;;;;;;;;;0.00;0.00;;;;;8.16;65.70;98659.91;5053774;28;45416;-66
2023/04/13 10:12:05;;;;;;;;;1.00;0.00;;;;;7.98;68.12;98646.56;5053979;28;45476;-67
2023/04/13 10:14:34;;;;;;;;;0.00;0.00;;;;;7.80;69.42;98647.22;5053826;28;45373;-66
2023/04/13 10:17:18;;;;;;;;;0.00;0.00;;;;;7.72;67.82;98646.63;5053834;28;46186;-66
2023/04/13 10:19:54;;;;;;;;;1.25;0.00;;;;;7.59;70.41;98624.38;5053699;28;45437;-67
2023/04/13 10:22:22;;;;;;;;;0.00;0.00;;;;;7.62;72.92;98625.13;5057374;28;45483;-66
2023/04/13 10:24:51;;;;;;;;;1.00;0.00;;;;;7.73;73.77;98629.97;5058346;27;45294;-66
2023/04/13 10:27:20;;;;;;;;;1.75;0.00;;;;;7.86;71.91;98636.53;5053378;28;45405;-65
2023/04/13 10:29:47;;;;;;;;;1.50;1.00;;;;;7.89;72.08;98625.88;5053602;28;45305;-65
2023/04/13 10:32:24;;;;;;;;;0.00;0.00;;;;;7.90;72.80;98630.22;5053678;28;45519;-66
2023/04/13 10:34:50;;;;;;;;;0.50;0.00;;;;;7.95;74.27;98619.56;5053446;28;45504;-66
2023/04/13 10:37:24;;;;;;;;;0.00;0.00;;;;;8.10;74.66;98624.22;5052831;28;46463;-66
2023/04/13 10:40:12;;;;;;;;;0.50;0.00;;;;;8.30;76.56;98626.94;5053426;28;45551;-66
2023/04/13 10:42:43;;;;;;;;;0.00;0.00;;;;;8.49;76.19;98627.13;5053488;28;45494;-66
2023/04/13 10:45:36;;;;;;;;;31.33;23.67;;;;;8.70;76.45;98618.38;5053268;28;45521;-67
2023/04/13 10:48:02;;;;;;;;;1.00;1.00;;;;;8.91;77.16;98619.25;5051306;28;46289;-66
2023/04/13 10:50:27;;;;;;;;;1.00;0.00;;;;;9.14;77.08;98620.94;5053007;28;45368;-66
2023/04/13 10:52:59;;;;;;;;;2.00;0.50;;;;;9.39;76.10;98618.94;5068449;28;45469;-67
2023/04/13 10:55:26;;;;;;;;;0.00;0.00;;;;;9.62;74.86;98623.22;5053280;28;45368;-66
2023/04/13 10:57:53;;;;;;;;;0.00;0.00;;;;;9.85;75.31;98616.94;5052977;28;45400;-66
2023/04/13 11:00:20;;;;;;;;;0.75;0.00;;;;;10.10;73.59;98612.25;5055141;28;45454;-67
2023/04/13 11:02:51;;;;;;;;;0.00;0.00;;;;;10.34;73.30;98607.66;5043990;28;45424;-67
2023/04/13 11:05:21;;;;;;;;;1.00;0.00;;;;;10.52;70.41;98603.28;5072152;28;45419;-68
2023/04/13 11:07:48;;;;;;;;;0.75;0.00;;;;;10.63;72.98;98603.59;5056387;28;46423;-68
2023/04/13 11:10:14;;;;;;;;;2.25;0.25;;;;;10.72;72.13;98605.81;5056529;28;45417;-68
2023/04/13 11:12:51;;;;;;;;;1.00;1.00;;;;;10.85;72.17;98595.50;5057203;28;45369;-68
2023/04/13 11:15:27;;;;;;;;;0.00;0.00;;;;;10.99;72.33;98593.03;5056854;28;45582;-67
2023/04/13 11:17:57;;;;;;;;;0.00;0.00;;;;;11.18;71.43;98595.59;5056878;28;46468;-66
2023/04/13 11:20:33;;;;;;;;;0.00;0.00;;;;;11.26;71.01;98584.63;5056606;28;45414;-66
2023/04/13 11:23:02;;;;;;;;;1.75;1.75;;;;;11.31;70.45;98599.31;5066556;28;45470;-66
2023/04/13 11:25:29;;;;;;;;;0.00;0.00;;;;;11.38;69.63;98589.31;5043360;28;45531;-66
2023/04/13 11:27:59;;;;;;;;;0.00;0.00;;;;;11.52;70.85;98597.34;5056457;28;45502;-66
2023/04/13 11:30:26;;;;;;;;;2.00;0.00;;;;;11.66;68.92;98593.97;5056376;28;45406;-66
2023/04/13 11:32:52;;;;;;;;;0.00;0.00;;;;;11.80;67.66;98580.94;5056452;28;45542;-66
2023/04/13 11:35:19;;;;;;;;;1.00;1.00;;;;;11.94;68.71;98586.31;5056024;28;45357;-66
2023/04/13 11:37:51;;;;;;;;;1.00;1.00;;;;;12.07;67.54;98576.78;5055648;28;46360;-66
2023/04/13 11:40:24;;;;;;;;;0.80;0.80;;;;;12.20;68.75;98583.13;5072044;28;45318;-66